Terminal Aerodrome Forecast
Issued by NWS

Home | Current Version | Previous Version | Text Only | Print | Product List | Glossary On
Versions: 1 2 3 4 5 6 7 8 9 10 11 12 13 14 15 16 17
986
FTUS45 KTFX 300534
TAFGTF
TAF
KGTF 300534Z 3006/0106 10006KT P6SM SCT060 BKN100
     FM301600 07007KT P6SM SCT050 BKN090
     FM010100 09007KT P6SM SCT080 BKN120=

USA.gov is the U.S. government's official web portal to all federal, state and local government web resources and services.